createdAt,value
2019-02-02T00:01:28.699Z,19.93
2019-02-02T00:03:55.637Z,19.13
2019-02-02T00:06:22.546Z,19.80
2019-02-02T00:08:49.490Z,20.03
2019-02-02T00:11:16.407Z,19.60
2019-02-02T00:13:43.374Z,19.80
2019-02-02T00:16:10.310Z,19.83
2019-02-02T00:18:37.221Z,20.97
2019-02-02T00:21:04.441Z,20.33
2019-02-02T00:23:31.355Z,20.23
2019-02-02T00:25:58.246Z,18.77
2019-02-02T00:28:25.174Z,21.37
2019-02-02T00:30:52.112Z,20.30
2019-02-02T00:33:19.030Z,20.47
2019-02-02T00:35:45.974Z,19.70
2019-02-02T00:38:12.907Z,20.10
2019-02-02T00:40:39.823Z,19.07
2019-02-02T00:43:06.867Z,18.00
2019-02-02T00:45:33.901Z,22.73
2019-02-02T00:48:00.803Z,18.83
2019-02-02T00:50:27.803Z,19.60
2019-02-02T00:52:54.709Z,20.10
2019-02-02T00:55:21.854Z,19.77
2019-02-02T00:57:53.650Z,19.10
2019-02-02T01:00:18.000Z,17.67
2019-02-02T01:02:45.044Z,19.00
2019-02-02T01:05:13.737Z,19.70
2019-02-02T01:07:40.678Z,23.33
2019-02-02T01:10:12.558Z,23.17
2019-02-02T01:12:39.550Z,26.63
2019-02-02T01:15:07.239Z,28.10
2019-02-02T01:17:34.222Z,24.70
2019-02-02T01:20:01.160Z,21.57
2019-02-02T01:22:28.056Z,19.90
2019-02-02T01:24:55.141Z,19.13
2019-02-02T01:27:22.042Z,19.70
2019-02-02T01:29:49.013Z,19.20
2019-02-02T01:32:15.969Z,18.87
2019-02-02T01:34:42.888Z,19.95
2019-02-02T01:37:09.812Z,18.60
2019-02-02T01:39:36.820Z,18.63
2019-02-02T01:42:03.801Z,18.33
2019-02-02T01:44:30.722Z,18.60
2019-02-02T01:46:57.742Z,18.90
2019-02-02T01:49:24.674Z,17.87
2019-02-02T01:51:51.603Z,18.87
2019-02-02T01:54:18.543Z,20.60
2019-02-02T01:56:45.487Z,18.70
2019-02-02T01:59:12.382Z,19.80
2019-02-02T02:01:41.638Z,20.17
2019-02-02T02:04:08.170Z,19.13
2019-02-02T02:06:35.140Z,18.53
2019-02-02T02:09:02.673Z,19.63
2019-02-02T02:11:29.626Z,20.03
2019-02-02T02:13:56.565Z,18.90
2019-02-02T02:16:23.539Z,17.33
2019-02-02T02:18:50.456Z,17.27
2019-02-02T02:21:17.404Z,18.70
2019-02-02T02:23:44.323Z,19.63
2019-02-02T02:26:11.249Z,17.17
2019-02-02T02:28:38.201Z,16.63
2019-02-02T02:31:05.142Z,16.60
2019-02-02T02:33:32.086Z,15.97
2019-02-02T02:35:59.080Z,16.70
2019-02-02T02:38:26.017Z,15.70
2019-02-02T02:40:53.196Z,15.20
2019-02-02T02:43:20.103Z,16.70
2019-02-02T02:45:47.009Z,15.50
2019-02-02T02:48:14.011Z,15.50
2019-02-02T02:50:40.923Z,15.73
2019-02-02T02:53:07.945Z,14.93
2019-02-02T02:55:34.913Z,14.77
2019-02-02T02:58:01.896Z,14.73
2019-02-02T03:00:28.886Z,15.20
2019-02-02T03:02:55.923Z,16.00
2019-02-02T03:05:22.834Z,16.05
2019-02-02T03:07:50.575Z,15.30
2019-02-02T03:10:19.188Z,16.00
2019-02-02T03:12:46.164Z,16.83
2019-02-02T03:15:15.320Z,15.27
2019-02-02T03:17:42.502Z,17.50
2019-02-02T03:20:10.732Z,15.93
2019-02-02T03:22:37.737Z,17.10
2019-02-02T03:25:06.872Z,15.27
2019-02-02T03:27:34.276Z,16.53
2019-02-02T03:30:01.257Z,17.23
2019-02-02T03:32:28.282Z,16.97
2019-02-02T03:34:55.187Z,17.60
2019-02-02T03:37:22.111Z,17.93
2019-02-02T03:39:49.043Z,18.23
2019-02-02T03:42:15.978Z,17.90
2019-02-02T03:44:42.871Z,17.53
2019-02-02T03:47:09.739Z,17.87
2019-02-02T03:49:36.682Z,17.27
2019-02-02T03:52:03.680Z,18.07
2019-02-02T03:54:30.640Z,19.17
2019-02-02T03:56:57.534Z,18.77
2019-02-02T03:59:24.499Z,18.00
2019-02-02T04:01:51.409Z,19.00
2019-02-02T04:04:18.319Z,20.00
2019-02-02T04:06:45.228Z,18.10
2019-02-02T04:09:12.239Z,19.40
2019-02-02T04:11:39.136Z,18.90
2019-02-02T04:14:06.103Z,19.40
2019-02-02T04:16:33.056Z,17.27
2019-02-02T04:18:59.940Z,19.70
2019-02-02T04:21:26.830Z,19.67
2019-02-02T04:23:53.841Z,24.73
2019-02-02T04:26:20.750Z,21.93
2019-02-02T04:28:47.676Z,20.33
2019-02-02T04:31:14.572Z,20.40
2019-02-02T04:33:41.518Z,19.90
2019-02-02T04:36:08.396Z,20.27
2019-02-02T04:38:35.418Z,19.70
2019-02-02T04:41:02.310Z,20.90
2019-02-02T04:43:29.252Z,20.17
2019-02-02T04:45:56.157Z,20.17
2019-02-02T04:48:23.067Z,17.70
2019-02-02T04:50:49.985Z,19.03
2019-02-02T04:53:16.884Z,20.60
2019-02-02T04:55:43.840Z,22.03
2019-02-02T04:58:10.765Z,19.83
2019-02-02T05:00:37.692Z,20.77
2019-02-02T05:03:04.576Z,21.77
2019-02-02T05:05:31.498Z,19.33
2019-02-02T05:07:58.430Z,19.50
2019-02-02T05:10:25.342Z,21.57
2019-02-02T05:12:52.266Z,19.20
2019-02-02T05:15:19.820Z,20.00
2019-02-02T05:17:46.698Z,19.50
2019-02-02T05:20:14.025Z,20.60
2019-02-02T05:22:40.924Z,21.03
2019-02-02T05:25:08.030Z,21.10
2019-02-02T05:27:34.899Z,20.70
2019-02-02T05:30:01.840Z,18.77
2019-02-02T05:32:28.720Z,20.87
2019-02-02T05:34:55.813Z,19.67
2019-02-02T05:37:22.911Z,19.67
2019-02-02T05:39:49.822Z,20.20
2019-02-02T05:42:16.732Z,19.00
2019-02-02T05:44:43.687Z,22.67
2019-02-02T05:47:10.599Z,20.37
2019-02-02T05:49:37.584Z,21.00
2019-02-02T05:52:04.484Z,20.93
2019-02-02T05:54:31.355Z,21.97
2019-02-02T05:56:58.301Z,20.37
2019-02-02T05:59:25.337Z,21.20
2019-02-02T06:01:52.325Z,22.57
2019-02-02T06:04:19.237Z,21.30
2019-02-02T06:06:46.159Z,19.60
2019-02-02T06:09:13.087Z,20.47
2019-02-02T06:11:40.027Z,22.53
2019-02-02T06:14:06.971Z,22.37
2019-02-02T06:16:33.986Z,20.20
2019-02-02T06:19:01.013Z,22.50
2019-02-02T06:21:27.952Z,21.50
2019-02-02T06:23:54.843Z,21.20
2019-02-02T06:26:21.835Z,23.10
2019-02-02T06:28:48.733Z,21.30
2019-02-02T06:31:15.648Z,22.50
2019-02-02T06:33:42.558Z,23.37
2019-02-02T06:36:09.539Z,22.03
2019-02-02T06:38:36.459Z,24.60
2019-02-02T06:41:03.363Z,24.37
2019-02-02T06:43:30.492Z,21.67
2019-02-02T06:45:57.821Z,23.57
2019-02-02T06:48:24.701Z,23.80
2019-02-02T06:50:51.693Z,25.00
2019-02-02T06:53:18.602Z,23.03
2019-02-02T06:55:45.548Z,22.80
2019-02-02T06:58:12.592Z,23.77
2019-02-02T07:00:39.504Z,22.23
2019-02-02T07:03:06.385Z,25.57
2019-02-02T07:05:33.965Z,24.20
2019-02-02T07:08:01.254Z,26.97
2019-02-02T07:10:28.310Z,25.77
2019-02-02T07:12:55.555Z,25.90
2019-02-02T07:15:24.491Z,26.17
2019-02-02T07:17:51.531Z,25.70
2019-02-02T07:20:18.693Z,23.80
2019-02-02T07:22:45.639Z,25.47
2019-02-02T07:25:12.841Z,24.00
2019-02-02T07:27:39.776Z,25.20
2019-02-02T07:30:12.584Z,25.83
2019-02-02T07:32:39.527Z,26.60
2019-02-02T07:35:07.858Z,29.23
2019-02-02T07:37:34.794Z,32.37
2019-02-02T07:40:01.694Z,29.03
2019-02-02T07:42:28.687Z,27.60
2019-02-02T07:44:55.742Z,27.77
2019-02-02T07:47:22.659Z,27.17
2019-02-02T07:49:49.572Z,27.53
2019-02-02T07:52:16.568Z,27.50
2019-02-02T07:54:43.462Z,28.60
2019-02-02T07:57:10.407Z,26.50
2019-02-02T07:59:37.331Z,26.67
2019-02-02T08:02:04.683Z,27.47
2019-02-02T08:04:31.608Z,27.10
2019-02-02T08:06:58.559Z,28.63
2019-02-02T08:09:25.450Z,27.87
2019-02-02T08:11:52.427Z,28.05
2019-02-02T08:14:19.334Z,30.87
2019-02-02T08:16:46.395Z,28.53
2019-02-02T08:19:13.342Z,31.00
2019-02-02T08:21:40.232Z,29.27
2019-02-02T08:24:07.329Z,30.03
2019-02-02T08:26:34.211Z,29.80
2019-02-02T08:29:01.156Z,29.83
2019-02-02T08:31:28.031Z,32.23
2019-02-02T08:33:54.942Z,37.23
2019-02-02T08:36:22.519Z,33.97
2019-02-02T08:38:49.495Z,36.70
2019-02-02T08:41:16.453Z,33.57
2019-02-02T08:43:43.336Z,33.90
2019-02-02T08:46:10.262Z,37.10
2019-02-02T08:48:37.183Z,34.40
2019-02-02T08:51:04.176Z,32.10
2019-02-02T08:53:31.972Z,31.30
2019-02-02T08:55:58.949Z,37.37
2019-02-02T08:58:25.938Z,38.57
2019-02-02T09:01:03.385Z,40.80
2019-02-02T09:03:21.688Z,36.20
2019-02-02T09:05:50.965Z,36.33
2019-02-02T09:08:17.407Z,35.97
2019-02-02T09:10:44.289Z,34.20
2019-02-02T09:13:11.316Z,33.03
2019-02-02T09:15:38.230Z,32.50
2019-02-02T09:18:05.320Z,35.23
2019-02-02T09:20:32.310Z,31.73
2019-02-02T09:23:05.779Z,32.00
2019-02-02T09:25:28.037Z,32.30
2019-02-02T09:27:54.958Z,31.85
2019-02-02T09:30:33.091Z,32.40
2019-02-02T09:33:00.162Z,31.30
2019-02-02T09:35:27.081Z,30.33
2019-02-02T09:37:53.975Z,30.27
2019-02-02T09:40:21.023Z,30.70
2019-02-02T09:42:48.058Z,29.77
2019-02-02T09:45:16.684Z,32.60
2019-02-02T09:47:43.657Z,30.07
2019-02-02T09:50:13.031Z,32.50
2019-02-02T09:52:39.938Z,31.47
2019-02-02T09:55:09.510Z,32.30
2019-02-02T09:57:37.197Z,33.37
2019-02-02T10:00:07.016Z,31.73
2019-02-02T10:02:33.892Z,32.13
2019-02-02T10:05:00.893Z,31.00
2019-02-02T10:07:27.785Z,31.60
2019-02-02T10:09:54.742Z,31.97
2019-02-02T10:12:21.671Z,30.57
2019-02-02T10:14:48.644Z,33.35
2019-02-02T10:17:15.535Z,30.23
2019-02-02T10:19:42.476Z,32.40
2019-02-02T10:22:09.427Z,31.30
2019-02-02T10:24:36.341Z,30.13
2019-02-02T10:27:03.377Z,31.50
2019-02-02T10:29:30.268Z,28.47
2019-02-02T10:31:57.207Z,32.40
2019-02-02T10:34:24.148Z,29.97
2019-02-02T10:36:51.064Z,31.97
2019-02-02T10:39:17.974Z,30.70
2019-02-02T10:41:44.920Z,31.25
2019-02-02T10:44:11.822Z,31.20
2019-02-02T10:46:38.803Z,35.00
2019-02-02T10:49:05.757Z,30.53
2019-02-02T10:51:32.729Z,36.60
2019-02-02T10:53:59.622Z,32.37
2019-02-02T10:56:26.560Z,29.63
2019-02-02T10:58:53.435Z,31.45
2019-02-02T11:01:20.403Z,29.80
2019-02-02T11:03:47.320Z,29.90
2019-02-02T11:06:14.240Z,32.65
2019-02-02T11:08:41.153Z,31.65
2019-02-02T11:11:08.075Z,32.30
2019-02-02T11:13:35.077Z,31.30
2019-02-02T11:16:02.184Z,32.60
2019-02-02T11:18:29.156Z,31.80
2019-02-02T11:20:56.150Z,32.17
2019-02-02T11:23:23.132Z,33.80
2019-02-02T11:25:50.061Z,33.57
2019-02-02T11:28:16.964Z,32.40
2019-02-02T11:30:44.018Z,33.73
2019-02-02T11:33:10.960Z,34.53
2019-02-02T11:35:37.838Z,30.37
2019-02-02T11:38:04.809Z,33.67
2019-02-02T11:40:33.856Z,32.73
2019-02-02T11:43:00.817Z,32.60
2019-02-02T11:45:27.713Z,31.70
2019-02-02T11:47:55.790Z,35.77
2019-02-02T11:50:23.159Z,33.20
2019-02-02T11:52:50.513Z,33.57
2019-02-02T11:55:17.939Z,37.87
2019-02-02T11:57:44.941Z,38.13
2019-02-02T12:00:16.388Z,35.80
2019-02-02T12:02:49.450Z,34.60
2019-02-02T12:05:13.170Z,36.27
2019-02-02T12:07:40.145Z,33.87
2019-02-02T12:10:09.212Z,34.50
2019-02-02T12:12:36.419Z,32.20
2019-02-02T12:15:05.455Z,34.35
2019-02-02T12:17:32.444Z,36.00
2019-02-02T12:19:59.328Z,34.07
2019-02-02T12:22:26.796Z,35.65
2019-02-02T12:24:53.833Z,33.90
2019-02-02T12:27:21.028Z,35.43
2019-02-02T12:29:47.929Z,36.17
2019-02-02T12:32:25.838Z,36.00
2019-02-02T12:34:43.777Z,34.47
2019-02-02T12:37:10.693Z,37.20
2019-02-02T12:39:37.594Z,34.20
2019-02-02T12:42:04.527Z,35.27
2019-02-02T12:44:31.466Z,32.87
2019-02-02T12:46:58.429Z,34.50
2019-02-02T12:49:25.538Z,36.30
2019-02-02T12:51:52.494Z,36.60
2019-02-02T12:54:19.467Z,38.10
2019-02-02T12:56:46.382Z,38.90
2019-02-02T12:59:13.325Z,38.23
2019-02-02T13:01:40.279Z,39.05
2019-02-02T13:04:07.369Z,38.73
2019-02-02T13:06:34.315Z,41.10
2019-02-02T13:09:01.407Z,40.10
2019-02-02T13:11:28.333Z,39.40
2019-02-02T13:13:55.270Z,40.37
2019-02-02T13:16:22.178Z,39.50
2019-02-02T13:18:49.114Z,37.70
2019-02-02T13:21:16.047Z,38.83
2019-02-02T13:23:42.987Z,36.70
2019-02-02T13:26:09.931Z,40.10
2019-02-02T13:28:36.870Z,39.23
2019-02-02T13:31:03.898Z,36.97
2019-02-02T13:33:30.847Z,36.80
2019-02-02T13:35:57.750Z,46.20
2019-02-02T13:38:24.784Z,53.40
2019-02-02T13:40:51.762Z,54.37
2019-02-02T13:43:18.757Z,40.57
2019-02-02T13:45:45.637Z,39.27
2019-02-02T13:48:12.575Z,42.95
2019-02-02T13:50:39.540Z,47.05
2019-02-02T13:53:07.661Z,46.73
2019-02-02T13:55:34.843Z,45.35
2019-02-02T13:58:01.794Z,40.70
2019-02-02T14:00:29.850Z,37.60
2019-02-02T14:03:02.702Z,39.50
2019-02-02T14:05:30.356Z,42.37
2019-02-02T14:08:00.051Z,43.77
2019-02-02T14:10:27.760Z,43.83
2019-02-02T14:12:54.729Z,44.27
2019-02-02T14:15:21.803Z,45.00
2019-02-02T14:17:48.705Z,43.60
2019-02-02T14:20:15.623Z,44.30
2019-02-02T14:22:42.648Z,41.67
2019-02-02T14:25:10.073Z,45.27
2019-02-02T14:27:37.019Z,44.60
2019-02-02T14:30:07.312Z,41.53
2019-02-02T14:32:34.326Z,42.83
2019-02-02T14:35:01.287Z,43.97
2019-02-02T14:37:28.184Z,43.17
2019-02-02T14:39:55.113Z,43.23
2019-02-02T14:42:22.035Z,46.13
2019-02-02T14:44:48.978Z,45.27
2019-02-02T14:47:15.900Z,45.40
2019-02-02T14:49:42.802Z,47.47
2019-02-02T14:52:09.720Z,45.00
2019-02-02T14:54:36.671Z,44.13
2019-02-02T14:57:03.695Z,46.10
2019-02-02T14:59:30.630Z,47.33
2019-02-02T15:01:57.522Z,45.15
2019-02-02T15:04:24.460Z,42.50
2019-02-02T15:06:51.359Z,44.43
2019-02-02T15:09:18.306Z,44.07
2019-02-02T15:11:45.563Z,47.23
2019-02-02T15:14:12.539Z,44.30
2019-02-02T15:16:39.494Z,46.25
2019-02-02T15:19:06.416Z,47.90
2019-02-02T15:21:33.395Z,46.33
2019-02-02T15:24:00.291Z,48.23
2019-02-02T15:26:27.239Z,44.97
2019-02-02T15:28:54.244Z,45.80
2019-02-02T15:31:21.167Z,48.30
2019-02-02T15:33:48.127Z,44.77
2019-02-02T15:36:15.082Z,46.77
2019-02-02T15:38:42.427Z,47.77
2019-02-02T15:41:09.349Z,47.37
2019-02-02T15:43:36.226Z,44.47
2019-02-02T15:46:03.278Z,46.87
2019-02-02T15:48:30.160Z,46.37
2019-02-02T15:50:57.210Z,46.20
2019-02-02T15:53:24.150Z,44.93
2019-02-02T15:55:51.083Z,43.30
2019-02-02T15:58:17.977Z,45.37
2019-02-02T16:00:45.019Z,46.20
2019-02-02T16:03:11.920Z,47.77
2019-02-02T16:05:39.052Z,49.03
2019-02-02T16:08:13.707Z,47.20
2019-02-02T16:10:40.661Z,45.10
2019-02-02T16:13:07.568Z,48.30
2019-02-02T16:15:34.747Z,48.33
2019-02-02T16:18:01.798Z,45.73
2019-02-02T16:20:31.440Z,47.50
2019-02-02T16:22:58.456Z,49.47
2019-02-02T16:25:25.334Z,49.40
2019-02-02T16:27:52.282Z,49.60
2019-02-02T16:30:21.150Z,44.57
2019-02-02T16:32:48.098Z,47.77
2019-02-02T16:35:15.028Z,49.10
2019-02-02T16:37:41.927Z,49.30
2019-02-02T16:40:12.275Z,49.90
2019-02-02T16:42:39.271Z,43.00
2019-02-02T16:45:08.557Z,61.40
2019-02-02T16:47:35.536Z,50.10
2019-02-02T16:50:02.861Z,47.17
2019-02-02T16:52:30.001Z,96.33
2019-02-02T16:54:56.889Z,50.73
2019-02-02T16:57:23.831Z,70.37
2019-02-02T16:59:50.742Z,45.40
2019-02-02T17:02:17.714Z,105.33
2019-02-02T17:04:44.648Z,61.60
2019-02-02T17:07:11.603Z,68.30
2019-02-02T17:09:41.389Z,50.30
2019-02-02T17:12:07.442Z,45.00
2019-02-02T17:14:34.456Z,43.17
2019-02-02T17:17:01.397Z,47.53
2019-02-02T17:19:28.290Z,48.90
2019-02-02T17:21:55.266Z,47.80
2019-02-02T17:24:22.203Z,45.90
2019-02-02T17:26:49.153Z,47.67
2019-02-02T17:29:16.144Z,46.13
2019-02-02T17:31:43.040Z,46.33
2019-02-02T17:34:10.022Z,46.70
2019-02-02T17:36:37.009Z,46.30
2019-02-02T17:39:05.554Z,45.57
2019-02-02T17:41:32.458Z,45.00
2019-02-02T17:43:59.389Z,46.70
2019-02-02T17:46:26.352Z,46.10
2019-02-02T17:48:53.362Z,44.57
2019-02-02T17:51:20.576Z,43.40
2019-02-02T17:53:47.519Z,45.97
2019-02-02T17:56:14.411Z,43.20
2019-02-02T17:58:41.327Z,43.03
2019-02-02T18:01:08.255Z,43.73
2019-02-02T18:03:35.176Z,46.13
2019-02-02T18:06:02.097Z,46.73
2019-02-02T18:08:29.048Z,44.50
2019-02-02T18:10:55.956Z,45.10
2019-02-02T18:13:23.110Z,46.30
2019-02-02T18:15:50.006Z,45.50
2019-02-02T18:18:16.931Z,46.77
2019-02-02T18:20:43.883Z,48.00
2019-02-02T18:23:10.820Z,46.57
2019-02-02T18:25:37.746Z,46.57
2019-02-02T18:28:04.678Z,47.27
2019-02-02T18:30:31.651Z,47.57
2019-02-02T18:32:58.551Z,46.00
2019-02-02T18:35:25.834Z,46.30
2019-02-02T18:37:52.772Z,46.13
2019-02-02T18:40:19.915Z,47.87
2019-02-02T18:42:46.901Z,46.63
2019-02-02T18:45:16.672Z,48.17
2019-02-02T18:47:43.579Z,47.60
2019-02-02T18:50:12.491Z,48.97
2019-02-02T18:52:39.458Z,48.90
2019-02-02T18:55:08.624Z,48.20
2019-02-02T18:57:35.564Z,49.17
2019-02-02T19:00:06.157Z,49.40
2019-02-02T19:02:31.905Z,47.30
2019-02-02T19:05:04.049Z,49.95
2019-02-02T19:07:27.782Z,53.10
2019-02-02T19:09:54.799Z,50.00
2019-02-02T19:12:21.751Z,50.00
2019-02-02T19:14:48.660Z,48.20
2019-02-02T19:17:15.588Z,52.00
2019-02-02T19:19:42.553Z,54.40
2019-02-02T19:22:09.468Z,54.10
2019-02-02T19:24:36.410Z,55.43
2019-02-02T19:27:03.284Z,54.20
2019-02-02T19:29:30.374Z,54.83
2019-02-02T19:31:57.354Z,53.23
2019-02-02T19:34:24.609Z,49.90
2019-02-02T19:36:51.484Z,53.10
2019-02-02T19:39:18.389Z,53.10
2019-02-02T19:41:45.271Z,52.27
2019-02-02T19:44:12.179Z,52.50
2019-02-02T19:46:39.049Z,50.63
2019-02-02T19:49:05.972Z,54.80
2019-02-02T19:51:33.634Z,53.30
2019-02-02T19:54:00.943Z,56.57
2019-02-02T19:56:27.892Z,56.20
2019-02-02T19:58:54.827Z,55.77
2019-02-02T20:01:21.816Z,55.07
2019-02-02T20:03:48.712Z,54.03
2019-02-02T20:06:15.641Z,54.83
2019-02-02T20:08:42.518Z,57.90
2019-02-02T20:11:09.453Z,56.50
2019-02-02T20:13:36.932Z,60.70
2019-02-02T20:16:04.312Z,57.40
2019-02-02T20:18:31.232Z,55.43
2019-02-02T20:20:58.152Z,59.57
2019-02-02T20:23:25.040Z,59.60
2019-02-02T20:25:51.993Z,61.00
2019-02-02T20:28:18.884Z,62.17
2019-02-02T20:30:45.969Z,56.47
2019-02-02T20:33:12.839Z,54.60
2019-02-02T20:35:42.349Z,54.80
2019-02-02T20:38:08.622Z,56.90
2019-02-02T20:40:35.563Z,54.97
2019-02-02T20:43:02.603Z,56.07
2019-02-02T20:45:31.601Z,53.20
2019-02-02T20:47:58.537Z,57.90
2019-02-02T20:50:25.484Z,52.57
2019-02-02T20:52:52.374Z,56.47
2019-02-02T20:55:27.369Z,55.53
2019-02-02T20:57:54.282Z,53.53
2019-02-02T21:00:22.799Z,59.90
2019-02-02T21:02:49.737Z,51.90
2019-02-02T21:05:16.638Z,54.90
2019-02-02T21:07:43.695Z,52.73
2019-02-02T21:10:13.439Z,52.90
2019-02-02T21:12:40.347Z,53.40
2019-02-02T21:15:08.922Z,53.97
2019-02-02T21:17:35.855Z,52.27
2019-02-02T21:20:04.016Z,53.40
2019-02-02T21:22:30.926Z,53.13
2019-02-02T21:24:57.805Z,48.60
2019-02-02T21:27:25.129Z,49.10
2019-02-02T21:29:52.489Z,51.23
2019-02-02T21:32:19.400Z,49.60
2019-02-02T21:34:46.488Z,50.67
2019-02-02T21:37:13.432Z,50.40
2019-02-02T21:39:40.343Z,46.80
2019-02-02T21:42:07.711Z,47.80
2019-02-02T21:44:42.946Z,43.50
2019-02-02T21:47:03.774Z,47.60
2019-02-02T21:49:30.878Z,46.10
2019-02-02T21:51:57.821Z,48.97
2019-02-02T21:54:25.773Z,43.83
2019-02-02T21:56:52.923Z,44.87
2019-02-02T21:59:19.830Z,44.67
2019-02-02T22:01:46.814Z,46.50
2019-02-02T22:04:13.727Z,45.13
2019-02-02T22:06:40.642Z,45.47
2019-02-02T22:09:07.843Z,46.03
2019-02-02T22:11:34.746Z,42.90
2019-02-02T22:14:02.019Z,46.53
2019-02-02T22:16:28.972Z,45.20
2019-02-02T22:18:55.962Z,43.67
2019-02-02T22:21:22.903Z,43.10
2019-02-02T22:23:49.904Z,45.00
2019-02-02T22:26:16.867Z,45.17
2019-02-02T22:28:43.816Z,45.33
2019-02-02T22:31:10.879Z,41.30
2019-02-02T22:33:37.823Z,43.23
2019-02-02T22:36:04.769Z,41.73
2019-02-02T22:38:31.751Z,42.53
2019-02-02T22:40:58.729Z,41.00
2019-02-02T22:43:25.647Z,41.13
2019-02-02T22:45:52.913Z,44.70
2019-02-02T22:48:19.889Z,43.17
2019-02-02T22:50:46.795Z,39.43
2019-02-02T22:53:13.926Z,42.10
2019-02-02T22:55:40.840Z,43.20
2019-02-02T22:58:07.875Z,44.07
2019-02-02T23:01:03.517Z,40.20
2019-02-02T23:03:46.123Z,41.27
2019-02-02T23:06:49.645Z,43.13
2019-02-02T23:09:54.397Z,38.83
2019-02-02T23:12:30.560Z,43.43
2019-02-02T23:15:27.802Z,42.53
2019-02-02T23:17:54.669Z,42.57
2019-02-02T23:20:21.610Z,40.80
2019-02-02T23:22:48.499Z,41.00
2019-02-02T23:25:15.479Z,42.10
2019-02-02T23:27:42.360Z,40.30
2019-02-02T23:30:10.624Z,43.00
2019-02-02T23:32:37.596Z,44.57
2019-02-02T23:35:04.624Z,41.80
2019-02-02T23:37:31.500Z,43.47
2019-02-02T23:39:58.410Z,41.40
2019-02-02T23:42:25.362Z,43.03
2019-02-02T23:44:52.369Z,45.10
2019-02-02T23:47:19.702Z,41.53
2019-02-02T23:49:46.621Z,42.47
2019-02-02T23:52:13.559Z,48.10
2019-02-02T23:54:40.452Z,44.20
2019-02-02T23:57:07.339Z,44.17
2019-02-02T23:59:35.284Z,45.50
